Time;durP1;ratioP1;P1;durP2;ratioP2;P2;SDS_P1;SDS_P2;PMS_P1;PMS_P2;Temp;Humidity;BMP_temperature;BMP_pressure;BME280_temperature;BME280_humidity;BME280_pressure;Samples;Min_cycle;Max_cycle;Signal;HPM_P1;HPM_P2
2021/07/12 00:00:09;;;;;;;9.45;7.95;;;19.40;99.90;;;;;;5038131;28;20505;-71
2021/07/12 00:02:35;;;;;;;8.27;7.47;;;19.40;99.90;;;;;;5031556;28;20115;-72
2021/07/12 00:05:00;;;;;;;11.68;9.27;;;19.30;99.90;;;;;;5035823;28;20288;-71
2021/07/12 00:48:40;;;;;;;13.95;8.35;;;19.10;99.90;;;;;;5028622;28;20122;-72
2021/07/12 00:51:06;;;;;;;8.77;7.35;;;19.20;99.90;;;;;;5269373;22;20053;-70
2021/07/12 00:53:32;;;;;;;10.65;8.15;;;19.10;99.90;;;;;;5032425;28;20076;-71
2021/07/12 00:55:58;;;;;;;11.45;9.68;;;19.00;99.90;;;;;;5038424;28;20039;-71
2021/07/12 00:58:26;;;;;;;9.38;8.38;;;19.10;99.90;;;;;;5034054;28;20101;-71
2021/07/12 01:01:01;;;;;;;14.65;9.02;;;19.10;99.90;;;;;;5042279;28;20029;-72
2021/07/12 01:03:27;;;;;;;12.25;8.35;;;19.10;99.90;;;;;;5042332;28;20083;-71
2021/07/12 01:05:53;;;;;;;9.88;7.40;;;18.90;99.90;;;;;;5036867;28;20021;-71
2021/07/12 01:08:19;;;;;;;12.20;8.52;;;18.90;99.90;;;;;;5039337;28;20029;-72
2021/07/12 01:10:57;;;;;;;11.25;7.43;;;18.70;99.90;;;;;;5038306;28;20022;-71
2021/07/12 01:14:07;;;;;;;11.50;8.60;;;18.80;99.90;;;;;;5028890;28;20099;-72
2021/07/12 01:17:29;;;;;;;11.13;8.65;;;18.80;99.90;;;;;;5027842;28;20034;-72
2021/07/12 01:20:35;;;;;;;12.68;8.98;;;18.80;99.90;;;;;;4968678;28;20034;-71
2021/07/12 01:23:38;;;;;;;14.05;10.57;;;18.90;99.90;;;;;;5027434;28;20501;-70
2021/07/12 01:26:38;;;;;;;15.43;12.02;;;18.90;99.90;;;;;;5033537;28;20022;-70
2021/07/12 01:29:14;;;;;;;16.67;12.40;;;18.90;99.90;;;;;;5028465;28;20037;-70
2021/07/12 01:32:21;;;;;;;18.42;13.55;;;18.90;99.90;;;;;;5032379;28;20013;-70
2021/07/12 01:35:04;;;;;;;20.17;14.00;;;18.90;99.90;;;;;;5018395;28;20046;-70
2021/07/12 01:37:36;;;;;;;;;;;18.90;99.90;;;;;;5029370;28;20104;-68
2021/07/12 01:40:14;;;;;;;13.10;11.30;;;19.00;99.90;;;;;;5032601;28;19912;-70
2021/07/12 01:42:50;;;;;;;14.77;11.48;;;18.90;99.90;;;;;;5038978;28;20291;-70
2021/07/12 01:45:17;;;;;;;18.33;12.98;;;18.80;99.90;;;;;;5028368;28;20488;-71
2021/07/12 01:48:04;;;;;;;15.93;12.90;;;18.90;99.90;;;;;;5033926;28;20097;-72
2021/07/12 01:50:42;;;;;;;19.40;14.73;;;18.80;99.90;;;;;;5028781;28;20034;-71
2021/07/12 01:53:08;;;;;;;17.48;14.43;;;18.80;99.90;;;;;;5031386;28;20028;-71
2021/07/12 01:55:39;;;;;;;19.23;14.63;;;18.80;99.90;;;;;;5025073;28;20030;-71
2021/07/12 01:58:18;;;;;;;18.75;13.80;;;18.80;99.90;;;;;;5027350;28;20153;-71
2021/07/12 02:00:46;;;;;;;15.50;13.77;;;18.70;99.90;;;;;;5023061;28;20096;-71
2021/07/12 02:03:15;;;;;;;20.88;15.68;;;18.70;99.90;;;;;;5031364;28;20095;-71
2021/07/12 02:05:44;;;;;;;15.35;13.23;;;18.60;99.90;;;;;;5032515;28;20155;-71
2021/07/12 02:08:14;;;;;;;19.20;14.63;;;18.60;99.90;;;;;;5031993;28;20021;-71
2021/07/12 02:10:40;;;;;;;19.48;13.77;;;18.60;99.90;;;;;;5028052;28;20108;-71
2021/07/12 02:13:06;;;;;;;20.58;13.77;;;18.60;99.90;;;;;;5020698;28;20026;-70
2021/07/12 02:15:34;;;;;;;15.50;12.98;;;18.60;99.90;;;;;;5028276;28;20053;-70
2021/07/12 02:18:02;;;;;;;16.05;13.20;;;18.50;99.90;;;;;;5027797;28;20033;-70
2021/07/12 02:20:29;;;;;;;19.88;13.18;;;18.60;99.90;;;;;;5029263;28;20108;-70
2021/07/12 02:22:56;;;;;;;18.30;12.55;;;18.50;99.90;;;;;;5022922;28;20454;-70
2021/07/12 02:25:22;;;;;;;17.60;14.50;;;18.50;99.90;;;;;;5027680;28;20019;-70
2021/07/12 02:27:49;;;;;;;15.63;11.77;;;18.50;99.90;;;;;;5029242;28;20024;-69
2021/07/12 02:30:16;;;;;;;14.23;10.07;;;18.50;99.90;;;;;;5026597;28;20014;-70
2021/07/12 02:32:44;;;;;;;15.30;10.65;;;18.60;99.90;;;;;;5028306;28;20040;-70
2021/07/12 02:35:13;;;;;;;16.48;11.13;;;18.60;99.90;;;;;;5030739;28;20025;-70
2021/07/12 02:37:41;;;;;;;11.57;9.10;;;18.60;99.90;;;;;;5031248;28;20028;-70
2021/07/12 02:40:09;;;;;;;12.95;10.95;;;18.50;99.90;;;;;;5024494;28;20027;-70
2021/07/12 02:42:41;;;;;;;16.02;10.25;;;18.60;99.90;;;;;;5029592;28;20041;-70
2021/07/12 02:45:09;;;;;;;12.40;11.13;;;18.60;99.90;;;;;;5026280;28;20048;-71
2021/07/12 02:47:37;;;;;;;12.35;10.55;;;18.60;99.90;;;;;;5030253;28;20459;-70
2021/07/12 02:50:05;;;;;;;12.15;9.55;;;18.60;99.90;;;;;;5030950;28;20108;-70
2021/07/12 02:52:38;;;;;;;14.82;10.60;;;18.50;99.90;;;;;;4992510;28;1092779;-71
2021/07/12 02:55:04;;;;;;;15.88;11.68;;;18.50;99.90;;;;;;5027282;28;20026;-70
2021/07/12 02:57:30;;;;;;;16.23;12.23;;;18.50;99.90;;;;;;5026300;28;20032;-71
2021/07/12 02:59:56;;;;;;;18.88;12.77;;;18.50;99.90;;;;;;5030104;28;20021;-70
2021/07/12 03:02:21;;;;;;;15.50;11.30;;;18.40;99.90;;;;;;5024205;28;20047;-70
2021/07/12 03:04:47;;;;;;;14.18;11.45;;;18.40;99.90;;;;;;5031686;28;20381;-70
2021/07/12 03:07:31;;;;;;;13.80;9.98;;;18.40;99.90;;;;;;5027317;28;20034;-70
2021/07/12 03:10:07;;;;;;;18.92;13.30;;;18.40;99.90;;;;;;5030129;28;20017;-70
2021/07/12 03:12:49;;;;;;;16.20;13.80;;;18.30;99.90;;;;;;5026399;28;20017;-70
2021/07/12 03:15:18;;;;;;;14.93;11.93;;;18.20;99.90;;;;;;5028992;28;20033;-70
2021/07/12 03:17:53;;;;;;;19.25;13.00;;;18.20;99.90;;;;;;5030727;28;20057;-71
2021/07/12 03:20:20;;;;;;;14.98;12.65;;;18.20;99.90;;;;;;5029745;28;20026;-71
2021/07/12 03:22:52;;;;;;;15.48;12.75;;;18.20;99.90;;;;;;5031427;28;20121;-70
2021/07/12 03:25:24;;;;;;;15.70;12.60;;;18.10;99.90;;;;;;5025782;28;20032;-71
2021/07/12 03:27:56;;;;;;;18.67;13.68;;;18.10;99.90;;;;;;5029837;28;20063;-71
2021/07/12 03:30:22;;;;;;;17.97;12.67;;;18.10;99.90;;;;;;5029487;28;20040;-70
2021/07/12 03:32:49;;;;;;;15.52;12.63;;;18.10;99.90;;;;;;5029994;28;20025;-71
2021/07/12 03:35:17;;;;;;;21.05;12.88;;;18.00;99.90;;;;;;5028192;28;20030;-71
2021/07/12 03:37:43;;;;;;;21.63;12.98;;;18.00;99.90;;;;;;5031776;28;20121;-71
2021/07/12 03:40:09;;;;;;;20.10;13.35;;;18.00;99.90;;;;;;5026368;28;20018;-71
2021/07/12 03:42:37;;;;;;;14.70;11.93;;;18.00;99.90;;;;;;5030731;28;20033;-70
2021/07/12 03:45:05;;;;;;;17.65;13.10;;;18.00;99.90;;;;;;5031688;28;20068;-70
2021/07/12 03:47:33;;;;;;;15.65;12.18;;;17.90;99.90;;;;;;5024351;28;20076;-70
2021/07/12 03:50:05;;;;;;;16.70;12.30;;;18.00;99.90;;;;;;5031000;28;20105;-70
2021/07/12 03:52:39;;;;;;;18.73;12.48;;;18.00;99.90;;;;;;5030502;28;20397;-70
2021/07/12 03:55:05;;;;;;;22.45;13.93;;;18.00;99.90;;;;;;5029271;28;20489;-71
2021/07/12 03:57:30;;;;;;;13.90;12.32;;;18.00;99.90;;;;;;5030511;28;20013;-71
2021/07/12 03:59:56;;;;;;;16.58;12.73;;;17.90;99.90;;;;;;5030935;28;20040;-70
2021/07/12 04:02:22;;;;;;;21.92;13.68;;;17.90;99.90;;;;;;5026013;28;20129;-71
2021/07/12 04:04:47;;;;;;;15.85;12.18;;;17.90;99.90;;;;;;5027301;28;20526;-70
2021/07/12 04:07:13;;;;;;;16.13;13.07;;;17.90;99.90;;;;;;5027109;28;20034;-71
2021/07/12 04:09:38;;;;;;;15.52;13.30;;;17.90;99.90;;;;;;5030361;28;20017;-70
2021/07/12 04:12:04;;;;;;;17.67;14.13;;;18.00;99.90;;;;;;5023117;28;20034;-70
2021/07/12 04:14:30;;;;;;;18.73;14.43;;;18.00;99.90;;;;;;5025985;28;20127;-70
2021/07/12 04:16:55;;;;;;;18.15;13.73;;;18.00;99.90;;;;;;5027476;28;20116;-69
2021/07/12 04:19:21;;;;;;;16.83;12.25;;;18.00;99.90;;;;;;5030168;28;20022;-70
2021/07/12 04:21:47;;;;;;;15.35;10.82;;;18.00;99.90;;;;;;5029965;28;20025;-70
2021/07/12 04:24:12;;;;;;;14.77;9.80;;;18.00;99.90;;;;;;5034664;28;20030;-70
2021/07/12 04:26:38;;;;;;;17.40;11.35;;;18.00;99.90;;;;;;5035219;28;20024;-75
2021/07/12 04:29:06;;;;;;;17.55;11.00;;;18.00;99.90;;;;;;5031984;28;20041;-74
2021/07/12 04:31:32;;;;;;;18.88;10.48;;;18.10;99.90;;;;;;5029505;28;20025;-73
2021/07/12 04:33:58;;;;;;;18.08;11.80;;;18.00;99.90;;;;;;5033022;28;20376;-69
2021/07/12 04:36:24;;;;;;;15.32;11.05;;;18.10;99.90;;;;;;5027948;28;20425;-70
2021/07/12 04:38:50;;;;;;;16.80;10.95;;;18.10;99.90;;;;;;5033168;28;20496;-69
2021/07/12 04:41:16;;;;;;;12.38;10.48;;;18.10;99.90;;;;;;5033692;28;20041;-69
2021/07/12 04:43:41;;;;;;;14.70;10.75;;;18.10;99.90;;;;;;5029143;28;20025;-69
2021/07/12 04:46:07;;;;;;;14.45;10.77;;;18.10;99.90;;;;;;5033997;28;20029;-68
2021/07/12 04:48:33;;;;;;;13.20;11.68;;;18.10;99.90;;;;;;5034196;28;20033;-69
2021/07/12 04:50:59;;;;;;;18.33;10.20;;;18.10;99.90;;;;;;5030633;28;20405;-69
2021/07/12 04:53:24;;;;;;;14.95;11.30;;;18.10;99.90;;;;;;5031318;28;20090;-72
2021/07/12 04:55:50;;;;;;;12.90;11.40;;;18.10;99.90;;;;;;5034185;28;20021;-73
2021/07/12 04:58:15;;;;;;;17.42;13.68;;;18.00;99.90;;;;;;5026050;28;20486;-75
2021/07/12 05:00:41;;;;;;;16.85;12.05;;;18.10;99.90;;;;;;5033231;28;20025;-72
2021/07/12 05:03:07;;;;;;;14.23;11.73;;;18.10;99.90;;;;;;5034104;28;20382;-71
2021/07/12 05:05:33;;;;;;;16.25;11.10;;;18.10;99.90;;;;;;5029467;28;20023;-71
2021/07/12 05:07:59;;;;;;;20.02;12.18;;;18.10;99.90;;;;;;5033680;28;20036;-71
2021/07/12 05:10:25;;;;;;;17.67;12.02;;;18.10;99.90;;;;;;5029590;28;20852;-72
2021/07/12 05:12:51;;;;;;;16.73;11.88;;;18.00;99.90;;;;;;5033596;28;20112;-71
2021/07/12 05:15:17;;;;;;;17.13;11.50;;;18.10;99.90;;;;;;5033800;28;20097;-71
2021/07/12 05:17:43;;;;;;;17.75;12.55;;;18.00;99.90;;;;;;5026786;28;20072;-71
2021/07/12 05:20:09;;;;;;;17.38;12.88;;;18.10;99.90;;;;;;5031073;28;20025;-71
2021/07/12 05:22:35;;;;;;;18.05;12.85;;;18.20;99.90;;;;;;5032806;28;20090;-71
2021/07/12 05:25:02;;;;;;;17.65;14.13;;;18.20;99.90;;;;;;5033033;28;20481;-71
2021/07/12 05:27:27;;;;;;;15.88;13.05;;;18.20;99.90;;;;;;5028221;28;20029;-72
2021/07/12 05:29:53;;;;;;;15.43;12.43;;;18.20;99.90;;;;;;5031386;28;20477;-72
2021/07/12 05:32:19;;;;;;;16.77;12.48;;;18.20;99.90;;;;;;5032204;28;20413;-71
2021/07/12 05:34:44;;;;;;;17.42;12.43;;;18.30;99.90;;;;;;5028666;28;20079;-71
2021/07/12 05:37:10;;;;;;;17.25;13.05;;;18.20;99.90;;;;;;5032831;28;20359;-71
2021/07/12 05:39:36;;;;;;;19.75;13.93;;;18.20;99.90;;;;;;5031891;28;20035;-72
2021/07/12 05:42:02;;;;;;;17.58;13.60;;;18.30;99.90;;;;;;5025945;28;20358;-74
2021/07/12 05:44:27;;;;;;;16.67;13.93;;;18.30;99.90;;;;;;5031450;28;20474;-70
2021/07/12 05:46:53;;;;;;;22.55;14.95;;;18.30;99.90;;;;;;5029064;28;20029;-71
2021/07/12 05:49:19;;;;;;;25.13;17.90;;;18.30;99.90;;;;;;5033024;28;20040;-71
2021/07/12 05:51:47;;;;;;;20.10;14.25;;;18.30;99.90;;;;;;5027347;28;20060;-77
2021/07/12 05:54:13;;;;;;;21.23;18.05;;;18.30;99.90;;;;;;5031792;28;20026;-72
2021/07/12 05:56:39;;;;;;;17.38;15.18;;;18.40;99.90;;;;;;5023870;28;20579;-73
2021/07/12 05:59:04;;;;;;;21.83;17.33;;;18.30;99.90;;;;;;5029441;28;20014;-72
2021/07/12 06:01:30;;;;;;;20.75;15.18;;;18.40;99.90;;;;;;5027537;28;20114;-71
2021/07/12 06:03:55;;;;;;;25.88;18.55;;;18.40;99.90;;;;;;5031793;28;20033;-71
2021/07/12 06:06:21;;;;;;;28.40;22.92;;;18.40;99.90;;;;;;5022252;28;20476;-75
2021/07/12 06:08:47;;;;;;;20.67;17.33;;;18.40;99.90;;;;;;5030483;28;20036;-77
2021/07/12 06:11:12;;;;;;;18.17;16.23;;;18.40;99.90;;;;;;5032291;28;20072;-77
2021/07/12 06:13:38;;;;;;;22.58;18.33;;;18.50;99.90;;;;;;5031521;28;20036;-75
2021/07/12 06:16:04;;;;;;;23.15;18.35;;;18.50;99.90;;;;;;5032518;28;20473;-74
2021/07/12 06:18:30;;;;;;;19.55;14.88;;;18.60;99.90;;;;;;5032730;28;20025;-75
2021/07/12 06:20:55;;;;;;;20.02;14.82;;;18.70;99.90;;;;;;5028031;28;20520;-74
2021/07/12 06:23:21;;;;;;;16.50;14.35;;;18.70;99.90;;;;;;5031977;28;20021;-75
2021/07/12 06:25:47;;;;;;;16.45;12.55;;;18.70;99.90;;;;;;5032438;28;20112;-75
2021/07/12 06:28:12;;;;;;;15.80;13.13;;;18.70;99.90;;;;;;5032055;28;20102;-75
2021/07/12 06:30:38;;;;;;;14.15;10.20;;;18.80;99.90;;;;;;5029216;28;20155;-76
2021/07/12 06:33:04;;;;;;;13.32;11.68;;;18.80;99.90;;;;;;5028131;28;20032;-75
2021/07/12 06:35:30;;;;;;;13.88;10.40;;;18.90;99.90;;;;;;5029493;28;20028;-75
2021/07/12 06:37:56;;;;;;;12.13;10.52;;;19.00;99.90;;;;;;5029881;28;20548;-75
2021/07/12 06:40:22;;;;;;;13.48;11.38;;;19.00;99.90;;;;;;5021727;28;20080;-75
2021/07/12 06:42:48;;;;;;;12.82;9.82;;;19.10;99.90;;;;;;5029679;28;20481;-75
2021/07/12 06:45:15;;;;;;;11.55;9.57;;;19.20;99.90;;;;;;5030768;28;20384;-75
2021/07/12 06:47:40;;;;;;;13.93;8.57;;;19.30;99.90;;;;;;5030904;28;20454;-75
2021/07/12 06:50:07;;;;;;;9.55;8.00;;;19.30;99.90;;;;;;5025260;28;20107;-76
2021/07/12 06:52:33;;;;;;;13.57;8.25;;;19.40;99.90;;;;;;5030373;28;20041;-74
2021/07/12 06:54:58;;;;;;;11.18;7.25;;;19.50;99.90;;;;;;5032092;28;20017;-74
2021/07/12 06:57:24;;;;;;;8.90;7.88;;;19.60;99.90;;;;;;5030450;28;20029;-75
2021/07/12 06:59:51;;;;;;;11.70;7.18;;;19.70;99.90;;;;;;5032300;28;20025;-75
2021/07/12 07:02:17;;;;;;;7.13;6.38;;;19.80;99.90;;;;;;5027325;28;20059;-75
2021/07/12 07:04:43;;;;;;;9.57;7.03;;;20.00;99.90;;;;;;4996742;28;20076;-75
2021/07/12 07:07:10;;;;;;;9.27;6.40;;;20.10;99.90;;;;;;5017747;28;20033;-74
2021/07/12 07:09:35;;;;;;;10.27;6.63;;;20.20;99.90;;;;;;5027106;28;20022;-74
2021/07/12 07:12:01;;;;;;;8.32;6.10;;;20.30;99.90;;;;;;5027453;28;20038;-75
2021/07/12 07:14:26;;;;;;;10.50;6.43;;;20.30;99.90;;;;;;5029245;28;20049;-71
2021/07/12 07:16:53;;;;;;;6.38;5.28;;;20.50;99.90;;;;;;5024758;28;20443;-74
2021/07/12 07:19:19;;;;;;;6.28;5.68;;;20.60;99.90;;;;;;5043383;28;20022;-75
2021/07/12 07:21:51;;;;;;;8.07;5.45;;;20.80;99.90;;;;;;5026205;28;20039;-73
2021/07/12 07:24:17;;;;;;;10.73;5.07;;;20.90;99.90;;;;;;5029420;28;20381;-74
2021/07/12 07:26:43;;;;;;;5.85;4.60;;;21.00;99.90;;;;;;5017440;28;20021;-71
2021/07/12 07:29:08;;;;;;;9.88;5.20;;;21.10;99.90;;;;;;5022041;28;20013;-71
2021/07/12 07:31:34;;;;;;;8.98;4.90;;;21.10;99.90;;;;;;5023772;28;20029;-74
2021/07/12 07:34:00;;;;;;;4.95;4.53;;;21.20;99.90;;;;;;5025055;28;20104;-74
2021/07/12 07:36:26;;;;;;;6.70;4.57;;;21.40;99.90;;;;;;5014861;28;20671;-74
2021/07/12 07:38:51;;;;;;;4.90;4.43;;;21.50;99.90;;;;;;5027810;28;20017;-72
2021/07/12 07:41:19;;;;;;;7.53;3.67;;;21.50;99.90;;;;;;5024214;28;20068;-73
2021/07/12 07:43:45;;;;;;;6.80;3.92;;;21.60;99.90;;;;;;5021630;28;20026;-74
2021/07/12 07:46:10;;;;;;;3.97;3.58;;;21.70;99.90;;;;;;5018364;28;21744;-73
2021/07/12 07:48:38;;;;;;;6.00;4.25;;;21.80;99.90;;;;;;5020366;28;20116;-71
2021/07/12 07:51:04;;;;;;;5.07;3.83;;;21.80;99.90;;;;;;5026956;28;20033;-69
2021/07/12 07:53:29;;;;;;;6.13;3.30;;;21.90;99.90;;;;;;5025623;28;20041;-72
2021/07/12 07:55:55;;;;;;;3.75;3.45;;;22.00;99.90;;;;;;5018592;28;20049;-73
2021/07/12 07:58:21;;;;;;;6.20;4.10;;;22.10;99.90;;;;;;5028823;28;20037;-73
2021/07/12 08:00:46;;;;;;;5.13;3.25;;;22.20;99.90;;;;;;5027400;28;20034;-71
2021/07/12 08:03:12;;;;;;;4.57;4.05;;;22.30;99.90;;;;;;5027402;28;20041;-73
2021/07/12 08:05:37;;;;;;;6.38;3.72;;;22.40;99.90;;;;;;5024083;28;20478;-71
2021/07/12 08:08:03;;;;;;;4.03;3.20;;;22.50;99.90;;;;;;5026804;28;20030;-71
2021/07/12 08:10:30;;;;;;;4.13;3.22;;;22.60;99.90;;;;;;5029790;28;20017;-73
2021/07/12 08:12:56;;;;;;;3.25;2.90;;;22.60;99.90;;;;;;5026472;28;20107;-73
2021/07/12 08:15:22;;;;;;;6.95;3.70;;;22.70;99.90;;;;;;5047902;28;20113;-73
2021/07/12 08:17:49;;;;;;;16.58;5.03;;;22.60;99.90;;;;;;5021851;28;20033;-73
2021/07/12 08:20:16;;;;;;;124.95;27.77;;;22.80;99.90;;;;;;5027830;28;20501;-73
2021/07/12 08:22:43;;;;;;;13.35;4.90;;;22.90;99.90;;;;;;5027318;28;20171;-73
2021/07/12 08:25:09;;;;;;;97.07;19.65;;;23.00;99.90;;;;;;5029171;28;20026;-73
2021/07/12 08:27:36;;;;;;;6.03;3.03;;;23.00;99.90;;;;;;5023317;28;20042;-73
2021/07/12 08:30:04;;;;;;;3.20;2.90;;;23.10;99.90;;;;;;5025683;28;20017;-72
2021/07/12 08:32:30;;;;;;;3.55;3.25;;;23.10;99.90;;;;;;5032837;28;20021;-74
2021/07/12 08:34:55;;;;;;;4.32;3.90;;;23.30;99.90;;;;;;5031353;28;20071;-73
2021/07/12 08:37:21;;;;;;;4.72;3.35;;;23.30;99.90;;;;;;5028956;28;20152;-72
2021/07/12 08:39:47;;;;;;;4.38;3.30;;;23.40;99.90;;;;;;5032116;28;20021;-73
2021/07/12 08:42:13;;;;;;;5.93;3.08;;;23.40;99.90;;;;;;5030545;28;20449;-73
2021/07/12 08:44:39;;;;;;;2.97;2.78;;;23.60;99.90;;;;;;5030544;28;20048;-73
2021/07/12 08:47:07;;;;;;;4.47;2.70;;;23.70;99.90;;;;;;5027151;28;20025;-73
2021/07/12 08:49:33;;;;;;;2.50;2.30;;;23.80;99.90;;;;;;5045195;28;20021;-73
2021/07/12 08:52:06;;;;;;;4.78;3.13;;;23.80;99.90;;;;;;5026929;28;20397;-74
2021/07/12 08:54:32;;;;;;;2.50;2.30;;;23.90;99.90;;;;;;5030263;28;20159;-71
2021/07/12 08:56:58;;;;;;;2.83;2.63;;;23.90;99.90;;;;;;5044691;28;20104;-73
2021/07/12 08:59:31;;;;;;;3.90;2.83;;;24.00;99.90;;;;;;5030241;28;20021;-73
2021/07/12 09:02:03;;;;;;;2.78;2.50;;;24.00;99.90;;;;;;5028057;28;20398;-73
2021/07/12 09:04:29;;;;;;;3.55;3.25;;;24.20;99.90;;;;;;5025182;28;20032;-69
2021/07/12 09:06:59;;;;;;;2.88;2.67;;;24.20;99.90;;;;;;5023615;28;20029;-73
2021/07/12 09:09:25;;;;;;;2.83;2.42;;;24.40;99.90;;;;;;5029930;28;20045;-73
2021/07/12 09:11:50;;;;;;;3.28;2.97;;;24.50;99.90;;;;;;5028009;28;21536;-72
2021/07/12 09:14:17;;;;;;;3.30;2.20;;;24.50;99.90;;;;;;5032086;28;20118;-69
2021/07/12 09:16:51;;;;;;;2.40;2.17;;;24.50;99.90;;;;;;5027959;28;20491;-77
2021/07/12 09:19:32;;;;;;;2.00;1.90;;;24.50;99.90;;;;;;5028125;28;20025;-74
2021/07/12 09:22:00;;;;;;;1.70;1.60;;;24.60;99.90;;;;;;5030944;28;20037;-76
2021/07/12 09:24:32;;;;;;;2.55;2.30;;;24.70;99.90;;;;;;5027122;28;20510;-70
2021/07/12 09:27:06;;;;;;;2.67;2.47;;;24.80;99.90;;;;;;5027541;28;20033;-69
2021/07/12 09:29:43;;;;;;;3.80;2.17;;;24.90;99.90;;;;;;5031169;28;20358;-76
2021/07/12 09:32:12;;;;;;;2.58;1.73;;;24.80;99.90;;;;;;5030775;28;20104;-69
2021/07/12 09:34:39;;;;;;;1.90;1.70;;;25.00;99.90;;;;;;5043021;28;20036;-70
2021/07/12 09:37:07;;;;;;;2.00;1.80;;;25.10;99.90;;;;;;5027908;28;20476;-68
2021/07/12 09:39:41;;;;;;;2.17;2.00;;;25.30;99.90;;;;;;5023136;28;20037;-69
2021/07/12 09:42:08;;;;;;;1.92;1.55;;;25.50;99.90;;;;;;5026660;28;20034;-69
2021/07/12 09:44:37;;;;;;;1.90;1.70;;;25.80;99.90;;;;;;5024902;28;20033;-70
2021/07/12 09:47:16;;;;;;;1.80;1.70;;;25.70;99.90;;;;;;5026347;28;20021;-75
2021/07/12 09:49:42;;;;;;;2.47;1.73;;;25.80;99.90;;;;;;5029099;28;20058;-71
2021/07/12 09:52:11;;;;;;;2.00;1.80;;;26.00;99.90;;;;;;5027015;28;20025;-73
2021/07/12 09:54:39;;;;;;;3.03;1.42;;;25.90;99.90;;;;;;5028537;28;20444;-74
2021/07/12 09:57:17;;;;;;;1.80;1.70;;;26.00;99.90;;;;;;5026092;28;20029;-74
2021/07/12 10:00:04;;;;;;;3.25;1.70;;;26.10;99.90;;;;;;5027744;28;20029;-72
2021/07/12 10:02:32;;;;;;;1.90;1.58;;;26.10;99.90;;;;;;5030182;28;20029;-73
2021/07/12 10:05:00;;;;;;;2.90;1.60;;;26.10;99.90;;;;;;5027597;28;20377;-75
2021/07/12 10:07:27;;;;;;;2.15;1.50;;;26.10;99.90;;;;;;5027175;28;20112;-73
2021/07/12 10:09:53;;;;;;;4.40;1.50;;;26.30;99.90;;;;;;5025894;28;20030;-70
2021/07/12 10:12:19;;;;;;;2.58;1.63;;;26.20;99.90;;;;;;5022930;28;20032;-70
2021/07/12 10:14:45;;;;;;;1.55;1.45;;;26.10;99.90;;;;;;5027186;28;20100;-68
2021/07/12 10:17:12;;;;;;;2.42;1.50;;;26.20;99.90;;;;;;5028378;28;20407;-74
2021/07/12 10:19:38;;;;;;;2.30;1.63;;;26.30;99.90;;;;;;5028219;28;20044;-70
2021/07/12 10:22:05;;;;;;;1.55;1.45;;;26.20;99.90;;;;;;5029753;28;20025;-75
2021/07/12 10:24:40;;;;;;;1.88;1.77;;;26.20;99.90;;;;;;5023388;28;20044;-72
2021/07/12 10:27:17;;;;;;;1.50;1.40;;;26.10;99.90;;;;;;5026727;28;20017;-74
2021/07/12 10:29:43;;;;;;;2.17;1.58;;;26.30;99.90;;;;;;5025734;28;20018;-74
2021/07/12 10:32:13;;;;;;;1.63;1.52;;;26.20;99.90;;;;;;5025374;28;20464;-75
2021/07/12 10:34:53;;;;;;;1.80;1.30;;;26.20;99.90;;;;;;5029654;28;20025;-76
2021/07/12 10:37:18;;;;;;;1.60;1.50;;;26.10;99.90;;;;;;5028695;28;20477;-75
2021/07/12 10:40:05;;;;;;;3.05;1.38;;;25.90;99.90;;;;;;5028116;28;20053;-75
2021/07/12 10:42:43;;;;;;;1.40;1.30;;;25.80;99.90;;;;;;5037615;28;20099;-74
2021/07/12 10:45:27;;;;;;;2.15;1.60;;;25.60;99.90;;;;;;5029533;28;20017;-74
2021/07/12 10:48:06;;;;;;;1.52;1.42;;;25.40;99.90;;;;;;5019735;28;20041;-76
2021/07/12 10:50:38;;;;;;;2.15;1.50;;;25.40;99.90;;;;;;5023055;28;20025;-76
2021/07/12 10:53:20;;;;;;;;;;;25.20;99.90;;;;;;5029211;28;20508;-74
2021/07/12 10:56:08;;;;;;;3.00;1.40;;;25.10;99.90;;;;;;5023817;28;19953;-75
2021/07/12 10:58:35;;;;;;;2.53;1.52;;;25.00;99.90;;;;;;5025795;28;20024;-75
2021/07/12 11:01:06;;;;;;;2.75;1.60;;;24.90;99.90;;;;;;5027097;28;20100;-76
2021/07/12 11:03:40;;;;;;;1.95;1.10;;;24.90;99.90;;;;;;5014286;28;21113;-75
2021/07/12 11:06:52;;;;;;;1.65;1.40;;;24.80;99.90;;;;;;5022232;28;20374;-73
2021/07/12 11:09:47;;;;;;;3.65;1.50;;;24.90;99.90;;;;;;5027818;28;20022;-75
2021/07/12 11:12:30;;;;;;;2.38;1.42;;;24.90;99.90;;;;;;5023591;28;20033;-76
2021/07/12 11:15:11;;;;;;;4.38;1.30;;;24.80;99.90;;;;;;5026531;28;20105;-76
2021/07/12 11:17:58;;;;;;;1.63;1.30;;;25.00;99.90;;;;;;5028578;28;20013;-75
2021/07/12 11:20:45;;;;;;;3.22;1.50;;;24.80;99.90;;;;;;5016013;28;20597;-75
2021/07/12 11:23:43;;;;;;;1.42;1.33;;;24.90;99.90;;;;;;5026647;28;20484;-69
2021/07/12 11:26:23;;;;;;;2.83;1.20;;;25.00;99.90;;;;;;5016135;28;20353;-76
2021/07/12 11:28:54;;;;;;;1.77;1.40;;;25.00;99.90;;;;;;5024836;28;20032;-75
2021/07/12 11:31:49;;;;;;;2.78;1.52;;;25.00;99.90;;;;;;5029015;28;20042;-70
2021/07/12 11:34:19;;;;;;;2.63;1.40;;;25.00;99.90;;;;;;5027213;28;20032;-74
2021/07/12 11:36:49;;;;;;;1.90;1.13;;;24.90;99.90;;;;;;5033440;28;20033;-70
2021/07/12 11:39:17;;;;;;;1.13;1.10;;;24.90;99.90;;;;;;5029078;28;20469;-75
2021/07/12 11:41:42;;;;;;;1.67;1.40;;;24.80;99.90;;;;;;5027743;28;20823;-74
2021/07/12 11:44:14;;;;;;;1.90;1.20;;;24.70;99.90;;;;;;5029355;28;20087;-74
2021/07/12 11:46:40;;;;;;;1.70;1.38;;;24.80;99.90;;;;;;5032121;28;20021;-74
2021/07/12 11:49:11;;;;;;;1.95;1.63;;;24.90;99.90;;;;;;5029578;28;20029;-75
2021/07/12 11:51:37;;;;;;;1.63;1.45;;;25.10;99.90;;;;;;5032752;28;20025;-73
2021/07/12 11:54:19;;;;;;;2.42;1.77;;;25.10;99.90;;;;;;5033085;28;20030;-73
2021/07/12 11:57:10;;;;;;;2.37;1.40;;;25.20;99.90;;;;;;5032276;28;20021;-70
2021/07/12 11:59:38;;;;;;;3.45;1.67;;;25.30;99.90;;;;;;5031084;28;20034;-75
2021/07/12 12:02:09;;;;;;;2.25;1.50;;;25.30;99.90;;;;;;5030821;28;20029;-71
2021/07/12 12:04:51;;;;;;;1.73;1.63;;;25.60;99.90;;;;;;5028294;28;20476;-73
2021/07/12 12:07:29;;;;;;;2.10;1.90;;;25.80;99.90;;;;;;5024249;28;20032;-70
2021/07/12 12:10:00;;;;;;;1.70;1.60;;;25.90;99.90;;;;;;5030471;28;20036;-69
2021/07/12 12:12:29;;;;;;;2.67;1.60;;;25.90;99.90;;;;;;5028858;28;20034;-73
2021/07/12 12:14:57;;;;;;;1.80;1.70;;;26.00;99.90;;;;;;5030225;28;20026;-70
2021/07/12 12:17:23;;;;;;;5.88;2.30;;;25.90;99.90;;;;;;5031221;28;20026;-69
2021/07/12 12:20:22;;;;;;;2.60;1.92;;;26.00;99.90;;;;;;5043405;28;20392;-69
2021/07/12 12:23:09;;;;;;;3.42;2.00;;;25.90;99.90;;;;;;5008526;28;20041;-72
2021/07/12 12:25:45;;;;;;;1.67;1.58;;;25.90;99.90;;;;;;5026998;28;20061;-70
2021/07/12 12:28:22;;;;;;;2.05;1.95;;;25.80;99.90;;;;;;5021295;28;20029;-70
2021/07/12 12:30:48;;;;;;;3.72;1.70;;;25.70;99.90;;;;;;5023822;28;20033;-71
2021/07/12 12:33:13;;;;;;;1.70;1.60;;;25.70;99.90;;;;;;5030177;28;20080;-68
2021/07/12 12:35:39;;;;;;;4.70;2.30;;;25.70;99.90;;;;;;5031575;28;20568;-69
2021/07/12 12:38:14;;;;;;;4.93;2.08;;;25.70;99.90;;;;;;5028376;28;20022;-70
2021/07/12 12:40:40;;;;;;;3.10;1.73;;;25.60;99.90;;;;;;5029431;28;20349;-69
2021/07/12 12:43:19;;;;;;;1.65;1.55;;;25.50;99.90;;;;;;5030372;28;20030;-69
2021/07/12 12:45:48;;;;;;;6.93;2.20;;;25.50;99.90;;;;;;5028412;28;20116;-68
2021/07/12 12:48:32;;;;;;;4.47;2.10;;;25.50;99.90;;;;;;5030368;28;20381;-69
2021/07/12 12:50:58;;;;;;;2.13;2.03;;;25.50;99.90;;;;;;5017622;28;20030;-72
2021/07/12 12:53:34;;;;;;;2.97;1.92;;;25.50;99.90;;;;;;5024823;28;20852;-72
2021/07/12 12:55:59;;;;;;;2.35;2.20;;;25.50;99.90;;;;;;5038334;28;20037;-71
2021/07/12 12:58:28;;;;;;;2.05;1.95;;;25.50;99.90;;;;;;5027060;28;20072;-73
2021/07/12 13:00:55;;;;;;;2.05;1.95;;;25.60;99.90;;;;;;5026228;28;20075;-70
2021/07/12 13:03:20;;;;;;;1.85;1.75;;;25.60;99.90;;;;;;5031459;28;20527;-72
2021/07/12 13:06:04;;;;;;;2.70;1.98;;;25.60;99.90;;;;;;5026584;28;20101;-70
2021/07/12 13:08:31;;;;;;;2.38;2.10;;;25.70;99.90;;;;;;5024226;28;20021;-73
2021/07/12 13:10:58;;;;;;;2.78;2.35;;;25.70;99.90;;;;;;5023560;28;20013;-70
2021/07/12 13:13:28;;;;;;;3.78;2.58;;;25.80;99.90;;;;;;5028325;28;20052;-70
2021/07/12 13:16:10;;;;;;;2.90;2.70;;;25.80;99.90;;;;;;5039637;28;20091;-70
2021/07/12 13:18:35;;;;;;;6.28;2.33;;;25.80;99.90;;;;;;5025775;28;20424;-73
2021/07/12 13:21:01;;;;;;;4.20;2.58;;;25.90;99.90;;;;;;5027134;28;20030;-73
2021/07/12 13:23:28;;;;;;;2.80;2.40;;;26.00;99.90;;;;;;5030271;28;20068;-72
2021/07/12 13:26:08;;;;;;;3.30;2.58;;;25.90;99.90;;;;;;5029657;28;20018;-73
2021/07/12 13:28:34;;;;;;;2.40;2.10;;;26.00;99.90;;;;;;5020187;28;20021;-72
2021/07/12 13:31:00;;;;;;;3.60;2.65;;;26.00;99.90;;;;;;5023039;28;20044;-72
2021/07/12 13:33:28;;;;;;;3.17;2.67;;;26.00;99.90;;;;;;5026984;28;20030;-70